createdAt,value
2022-10-15T00:00:08.185Z,0.00
2022-10-15T00:01:08.273Z,0.00
2022-10-15T00:02:08.148Z,0.00
2022-10-15T00:03:08.150Z,0.00
2022-10-15T00:04:08.173Z,0.00
2022-10-15T00:05:08.117Z,0.00
2022-10-15T00:06:08.127Z,0.00
2022-10-15T00:07:08.113Z,0.00
2022-10-15T00:08:08.093Z,0.00
2022-10-15T00:09:08.076Z,0.00
2022-10-15T00:10:08.064Z,0.00
2022-10-15T00:11:08.051Z,0.00
2022-10-15T00:12:08.048Z,0.00
2022-10-15T00:13:08.046Z,0.00
2022-10-15T00:14:08.034Z,0.00
2022-10-15T00:15:08.032Z,0.00
2022-10-15T00:16:08.081Z,0.00
2022-10-15T00:17:07.988Z,0.00
2022-10-15T00:18:07.974Z,0.00
2022-10-15T00:19:07.971Z,0.00
2022-10-15T00:20:08.186Z,0.00
2022-10-15T00:21:07.962Z,0.00
2022-10-15T00:22:07.930Z,0.00
2022-10-15T00:23:07.935Z,0.00
2022-10-15T00:24:07.917Z,0.00
2022-10-15T00:25:07.907Z,0.00
2022-10-15T00:26:08.022Z,0.00
2022-10-15T00:27:07.872Z,0.00
2022-10-15T00:28:07.877Z,0.00
2022-10-15T00:29:07.997Z,0.00
2022-10-15T00:30:07.856Z,0.00
2022-10-15T00:31:07.838Z,0.00
2022-10-15T00:32:07.829Z,0.00
2022-10-15T00:33:07.817Z,0.00
2022-10-15T00:34:07.803Z,0.00
2022-10-15T00:35:07.794Z,0.00
2022-10-15T00:36:07.802Z,0.00
2022-10-15T00:37:07.768Z,0.00
2022-10-15T00:38:07.757Z,0.00
2022-10-15T00:39:07.794Z,0.00
2022-10-15T00:40:07.772Z,0.00
2022-10-15T00:41:07.731Z,0.00
2022-10-15T00:42:07.738Z,0.00
2022-10-15T00:43:07.705Z,0.00
2022-10-15T00:44:07.691Z,0.00
2022-10-15T00:45:07.692Z,0.00
2022-10-15T00:46:07.674Z,0.00
2022-10-15T00:47:07.664Z,0.00
2022-10-15T00:48:07.705Z,0.00
2022-10-15T00:49:07.638Z,0.00
2022-10-15T00:50:07.627Z,0.00
2022-10-15T00:51:07.624Z,0.00
2022-10-15T00:52:07.597Z,0.00
2022-10-15T00:53:07.590Z,0.00
2022-10-15T00:54:07.626Z,0.00
2022-10-15T00:55:07.584Z,0.00
2022-10-15T00:56:07.582Z,0.00
2022-10-15T00:57:07.578Z,0.00
2022-10-15T00:58:07.602Z,0.00
2022-10-15T00:59:07.537Z,0.00
2022-10-15T01:00:07.544Z,0.00
2022-10-15T01:01:07.558Z,0.00
2022-10-15T01:02:07.491Z,0.00
2022-10-15T01:03:07.497Z,0.00
2022-10-15T01:04:07.504Z,0.00
2022-10-15T01:05:07.493Z,0.00
2022-10-15T01:06:07.447Z,0.00
2022-10-15T01:07:07.501Z,0.00
2022-10-15T01:08:07.430Z,0.00
2022-10-15T01:09:07.436Z,0.00
2022-10-15T01:10:07.417Z,0.00
2022-10-15T05:01:10.566Z,0.00
2022-10-15T05:02:11.537Z,0.00
2022-10-15T05:03:11.479Z,0.00
2022-10-15T05:04:11.470Z,0.00
2022-10-15T05:05:11.462Z,0.00
2022-10-15T05:06:11.464Z,0.00
2022-10-15T05:07:11.435Z,0.00
2022-10-15T05:08:11.425Z,0.00
2022-10-15T05:09:11.417Z,0.00
2022-10-15T05:10:11.394Z,0.00
2022-10-15T05:11:11.427Z,0.00
2022-10-15T05:12:11.399Z,0.00
2022-10-15T05:13:11.384Z,0.00
2022-10-15T05:14:11.366Z,0.00
2022-10-15T05:15:11.377Z,0.00
2022-10-15T05:16:11.386Z,0.00
2022-10-15T05:17:11.366Z,0.00
2022-10-15T05:18:11.322Z,0.00
2022-10-15T05:19:11.302Z,0.00
2022-10-15T05:20:11.305Z,0.00
2022-10-15T05:21:11.292Z,0.00
2022-10-15T05:22:11.265Z,0.00
2022-10-15T05:23:11.293Z,0.00
2022-10-15T05:24:11.261Z,0.00
2022-10-15T05:25:11.183Z,1.00
2022-10-15T05:26:11.210Z,1.00
2022-10-15T05:27:11.165Z,1.00
2022-10-15T05:28:11.155Z,1.00
2022-10-15T05:29:11.182Z,1.00
2022-10-15T05:30:11.130Z,2.00
2022-10-15T05:31:16.065Z,2.00
2022-10-15T05:32:11.178Z,1.00
2022-10-15T05:33:11.113Z,1.00
2022-10-15T05:34:11.096Z,3.00
2022-10-15T05:35:11.089Z,4.00
2022-10-15T05:36:11.060Z,4.00
2022-10-15T05:37:11.046Z,3.00
2022-10-15T05:38:11.032Z,7.00
2022-10-15T05:39:11.039Z,6.00
2022-10-15T05:40:11.018Z,5.00
2022-10-15T05:41:11.027Z,8.00
2022-10-15T05:42:11.035Z,10.00
2022-10-15T05:43:10.992Z,10.00
2022-10-15T05:44:10.973Z,11.00
2022-10-15T05:45:10.966Z,14.00
2022-10-15T05:46:10.955Z,12.00
2022-10-15T05:47:10.948Z,13.00
2022-10-15T05:48:10.945Z,15.00
2022-10-15T05:49:10.924Z,18.00
2022-10-15T05:50:11.842Z,15.00
2022-10-15T05:51:10.899Z,17.00
2022-10-15T05:52:10.913Z,19.00
2022-10-15T05:53:10.916Z,17.00
2022-10-15T05:54:10.868Z,19.00
2022-10-15T05:55:10.856Z,20.00
2022-10-15T05:56:10.843Z,20.00
2022-10-15T05:57:10.844Z,23.00
2022-10-15T05:58:10.826Z,26.00
2022-10-15T05:59:10.817Z,28.00
2022-10-15T06:00:10.792Z,34.00
2022-10-15T06:01:10.789Z,38.00
2022-10-15T06:02:10.851Z,35.00
2022-10-15T06:03:10.782Z,43.00
2022-10-15T06:04:10.777Z,51.00
2022-10-15T06:05:10.747Z,50.00
2022-10-15T06:06:10.732Z,50.00
2022-10-15T06:07:10.718Z,54.00
2022-10-15T06:08:10.705Z,55.00
2022-10-15T06:09:10.723Z,57.00
2022-10-15T06:10:10.684Z,58.00
2022-10-15T06:11:10.680Z,58.00
2022-10-15T06:12:10.665Z,60.00
2022-10-15T06:13:10.656Z,62.00
2022-10-15T06:14:10.638Z,67.00
2022-10-15T06:15:10.670Z,71.00
2022-10-15T06:16:10.618Z,76.00
2022-10-15T06:17:10.610Z,80.00
2022-10-15T06:18:10.603Z,78.00
2022-10-15T06:19:10.586Z,81.00
2022-10-15T06:20:10.572Z,89.00
2022-10-15T06:21:10.587Z,100.00
2022-10-15T06:22:10.562Z,116.00
2022-10-15T06:23:10.557Z,133.00
2022-10-15T06:24:10.534Z,137.00
2022-10-15T06:25:10.520Z,126.00
2022-10-15T06:26:10.512Z,156.00
2022-10-15T06:27:10.515Z,181.00
2022-10-15T06:28:10.486Z,218.00
2022-10-15T06:29:10.480Z,252.00
2022-10-15T06:30:10.468Z,260.00
2022-10-15T06:31:10.461Z,222.00
2022-10-15T06:32:10.439Z,213.00
2022-10-15T06:34:10.426Z,163.00
2022-10-15T06:35:10.414Z,155.00
2022-10-15T06:36:10.400Z,142.00
2022-10-15T06:37:10.394Z,132.00
2022-10-15T06:38:10.391Z,119.00
2022-10-15T06:39:10.379Z,128.00
2022-10-15T06:40:10.356Z,145.00
2022-10-15T06:41:10.370Z,155.00
2022-10-15T06:42:10.343Z,159.00
2022-10-15T06:43:10.326Z,162.00
2022-10-15T06:44:10.330Z,154.00
2022-10-15T06:45:10.321Z,140.00
2022-10-15T06:46:10.300Z,143.00
2022-10-15T06:47:10.295Z,148.00
2022-10-15T06:48:10.292Z,148.00
2022-10-15T06:49:10.269Z,150.00
2022-10-15T06:50:10.257Z,163.00
2022-10-15T06:51:10.247Z,169.00
2022-10-15T06:52:10.228Z,174.00
2022-10-15T06:53:10.264Z,182.00
2022-10-15T06:54:10.261Z,188.00
2022-10-15T06:55:10.196Z,206.00
2022-10-15T06:56:10.220Z,210.00
2022-10-15T06:57:10.188Z,196.00
2022-10-15T06:58:10.165Z,186.00
2022-10-15T06:59:10.164Z,159.00
2022-10-15T07:00:10.143Z,146.00
2022-10-15T07:01:10.138Z,141.00
2022-10-15T07:02:10.140Z,140.00
2022-10-15T07:03:10.114Z,139.00
2022-10-15T07:04:10.131Z,138.00
2022-10-15T07:05:10.089Z,132.00
2022-10-15T07:06:10.073Z,135.00
2022-10-15T07:07:10.083Z,132.00
2022-10-15T07:08:10.537Z,140.00
2022-10-15T07:09:10.060Z,150.00
2022-10-15T07:10:10.123Z,158.00
2022-10-15T07:11:10.026Z,185.00
2022-10-15T07:12:10.016Z,199.00
2022-10-15T07:13:10.014Z,214.00
2022-10-15T07:14:09.991Z,251.00
2022-10-15T07:15:09.987Z,275.00
2022-10-15T07:16:09.966Z,284.00
2022-10-15T07:17:09.963Z,280.00
2022-10-15T07:18:09.942Z,265.00
2022-10-15T07:19:09.950Z,276.00
2022-10-15T07:20:09.920Z,267.00
2022-10-15T07:22:09.905Z,293.00
2022-10-15T07:23:09.893Z,311.00
2022-10-15T07:24:09.885Z,376.00
2022-10-15T07:25:09.890Z,414.00
2022-10-15T07:26:09.872Z,429.00
2022-10-15T07:27:18.646Z,416.00
2022-10-15T07:28:09.843Z,393.00
2022-10-15T07:29:09.850Z,377.00
2022-10-15T07:30:09.856Z,359.00
2022-10-15T07:31:09.828Z,348.00
2022-10-15T07:32:09.789Z,341.00
2022-10-15T07:33:09.787Z,343.00
2022-10-15T07:34:09.765Z,351.00
2022-10-15T07:35:09.755Z,376.00
2022-10-15T07:36:09.764Z,382.00
2022-10-15T07:37:09.736Z,417.00
2022-10-15T07:38:09.745Z,439.00
2022-10-15T07:39:09.718Z,521.00
2022-10-15T07:40:09.712Z,685.00
2022-10-15T07:41:09.692Z,708.00
2022-10-15T07:42:09.732Z,664.00
2022-10-15T07:43:09.665Z,723.00
2022-10-15T07:44:09.698Z,773.00
2022-10-15T07:45:09.651Z,814.00
2022-10-15T07:46:09.638Z,815.00
2022-10-15T07:47:09.644Z,751.00
2022-10-15T07:48:09.652Z,905.00
2022-10-15T07:49:09.605Z,970.00
2022-10-15T07:50:09.630Z,1088.00
2022-10-15T07:51:09.634Z,1138.00
2022-10-15T07:52:09.582Z,1214.00
2022-10-15T07:53:09.563Z,1100.00
2022-10-15T07:54:09.547Z,982.00
2022-10-15T07:55:09.560Z,889.00
2022-10-15T07:56:09.545Z,894.00
2022-10-15T07:57:09.511Z,937.00
2022-10-15T07:58:09.501Z,948.00
2022-10-15T07:59:09.499Z,987.00
2022-10-15T08:00:09.488Z,968.00
2022-10-15T08:01:09.488Z,1099.00
2022-10-15T08:02:09.464Z,1044.00
2022-10-15T08:03:09.452Z,1142.00
2022-10-15T08:04:09.456Z,1045.00
2022-10-15T08:05:09.438Z,1060.00
2022-10-15T08:06:09.443Z,1061.00
2022-10-15T08:07:10.333Z,1438.00
2022-10-15T08:08:09.398Z,1428.00
2022-10-15T08:09:09.385Z,1441.00
2022-10-15T08:10:09.375Z,1429.00
2022-10-15T08:11:09.363Z,1317.00
2022-10-15T08:12:09.372Z,1211.00
2022-10-15T08:13:09.341Z,1127.00
2022-10-15T08:14:09.340Z,1109.00
2022-10-15T08:15:09.339Z,1170.00
2022-10-15T08:16:09.326Z,1275.00
2022-10-15T08:17:09.300Z,1322.00
2022-10-15T08:18:09.312Z,1388.00
2022-10-15T08:19:09.281Z,1429.00
2022-10-15T08:20:09.274Z,1367.00
2022-10-15T08:21:09.265Z,1353.00
2022-10-15T08:22:09.245Z,1138.00
2022-10-15T08:23:09.237Z,1218.00
2022-10-15T08:24:09.238Z,1274.00
2022-10-15T08:25:09.210Z,1225.00
2022-10-15T08:26:09.212Z,1315.00
2022-10-15T08:27:09.191Z,1199.00
2022-10-15T08:29:09.181Z,1201.00
2022-10-15T08:30:09.156Z,1345.00
2022-10-15T08:31:09.147Z,1493.00
2022-10-15T08:32:09.144Z,1512.00
2022-10-15T08:33:09.127Z,1342.00
2022-10-15T08:34:09.120Z,1166.00
2022-10-15T08:35:09.140Z,1238.00
2022-10-15T08:36:09.096Z,1204.00
2022-10-15T08:37:09.150Z,1377.00
2022-10-15T08:38:09.078Z,1563.00
2022-10-15T08:39:09.061Z,1559.00
2022-10-15T08:40:09.078Z,1591.00
2022-10-15T08:41:09.047Z,1585.00
2022-10-15T08:42:09.042Z,1728.00
2022-10-15T08:43:09.017Z,1715.00
2022-10-15T08:44:09.024Z,1717.00
2022-10-15T08:45:08.996Z,1636.00
2022-10-15T08:46:09.007Z,1740.00
2022-10-15T08:47:08.987Z,1868.00
2022-10-15T08:48:08.960Z,1709.00
2022-10-15T08:49:08.963Z,1620.00
2022-10-15T08:50:08.953Z,1406.00
2022-10-15T08:51:08.933Z,1200.00
2022-10-15T08:52:08.929Z,1310.00
2022-10-15T08:53:08.911Z,1446.00
2022-10-15T08:54:08.898Z,1026.00
2022-10-15T08:55:08.892Z,1324.00
2022-10-15T08:56:08.891Z,1325.00
2022-10-15T08:57:08.867Z,1382.00
2022-10-15T08:58:08.859Z,1547.00
2022-10-15T08:59:08.849Z,1670.00
2022-10-15T09:00:08.828Z,1680.00
2022-10-15T09:01:08.815Z,1696.00
2022-10-15T09:02:08.806Z,1494.00
2022-10-15T09:03:08.869Z,2093.00
2022-10-15T09:04:08.790Z,1672.00
2022-10-15T09:05:08.782Z,1840.00
2022-10-15T09:06:08.765Z,1798.00
2022-10-15T09:07:08.749Z,1454.00
2022-10-15T09:08:08.758Z,1167.00
2022-10-15T09:09:08.751Z,1087.00
2022-10-15T09:10:08.717Z,1224.00
2022-10-15T09:11:08.715Z,1748.00
2022-10-15T09:12:08.694Z,1490.00
2022-10-15T09:13:11.433Z,959.00
2022-10-15T09:14:08.709Z,1087.00
2022-10-15T09:15:08.747Z,1182.00
2022-10-15T09:16:08.652Z,1179.00
2022-10-15T09:17:08.643Z,1494.00
2022-10-15T09:18:08.637Z,1059.00
2022-10-15T09:19:08.637Z,1362.00
2022-10-15T09:20:08.653Z,1084.00
2022-10-15T09:21:08.595Z,657.00
2022-10-15T09:22:08.591Z,864.00
2022-10-15T09:23:08.578Z,698.00
2022-10-15T09:24:08.577Z,1033.00
2022-10-15T09:25:08.596Z,1026.00
2022-10-15T09:26:08.543Z,658.00
2022-10-15T09:27:08.533Z,691.00
2022-10-15T09:28:08.535Z,496.00
2022-10-15T09:29:08.566Z,1185.00
2022-10-15T09:30:08.509Z,1845.00
2022-10-15T09:31:08.554Z,1290.00
2022-10-15T09:32:08.493Z,2105.00
2022-10-15T09:33:08.465Z,1047.00
2022-10-15T09:34:08.461Z,2760.00
2022-10-15T09:35:08.463Z,1717.00
2022-10-15T09:36:08.445Z,2679.00
2022-10-15T09:37:08.424Z,2142.00
2022-10-15T09:38:08.420Z,1628.00
2022-10-15T09:39:08.446Z,2011.00
2022-10-15T09:40:08.408Z,2189.00
2022-10-15T09:42:08.377Z,2207.00
2022-10-15T09:43:08.364Z,2084.00
2022-10-15T09:44:08.353Z,1889.00
2022-10-15T09:45:08.343Z,1794.00
2022-10-15T09:46:08.336Z,1444.00
2022-10-15T09:47:08.355Z,1505.00
2022-10-15T09:48:08.325Z,1547.00
2022-10-15T09:49:08.393Z,1481.00
2022-10-15T09:50:08.362Z,1014.00
2022-10-15T09:51:08.864Z,1188.00
2022-10-15T09:52:08.291Z,1484.00
2022-10-15T09:53:08.246Z,1186.00
2022-10-15T09:54:08.245Z,1109.00
2022-10-15T09:55:08.238Z,896.00
2022-10-15T09:56:08.222Z,816.00
2022-10-15T09:57:08.209Z,1170.00
2022-10-15T09:58:08.219Z,1221.00
2022-10-15T09:59:08.954Z,1343.00
2022-10-15T10:00:08.196Z,1525.00
2022-10-15T10:01:08.175Z,1861.00
2022-10-15T10:02:08.226Z,2382.00
2022-10-15T10:03:08.186Z,2216.00
2022-10-15T10:04:08.133Z,1754.00
2022-10-15T10:05:08.729Z,1855.00
2022-10-15T10:06:08.119Z,2030.00
2022-10-15T10:07:08.120Z,2162.00
2022-10-15T10:08:08.089Z,1716.00
2022-10-15T10:09:08.176Z,1877.00
2022-10-15T10:10:08.066Z,1390.00
2022-10-15T10:11:08.053Z,1946.00
2022-10-15T10:12:08.073Z,1786.00
2022-10-15T10:13:08.053Z,1327.00
2022-10-15T10:14:08.023Z,1559.00
2022-10-15T10:15:08.008Z,1597.00
2022-10-15T10:16:08.026Z,1131.00
2022-10-15T10:17:07.992Z,1887.00
2022-10-15T10:18:07.991Z,1988.00
2022-10-15T10:19:08.054Z,1994.00
2022-10-15T10:20:07.968Z,2363.00
2022-10-15T10:21:07.998Z,1975.00
2022-10-15T10:22:07.937Z,1855.00
2022-10-15T10:23:07.924Z,1797.00
2022-10-15T10:24:07.921Z,1802.00
2022-10-15T10:25:07.903Z,1841.00
2022-10-15T10:26:07.896Z,1429.00
2022-10-15T10:27:07.904Z,1391.00
2022-10-15T10:28:07.870Z,953.00
2022-10-15T10:29:15.892Z,696.00
2022-10-15T10:30:07.854Z,663.00
2022-10-15T10:31:07.845Z,566.00
2022-10-15T10:32:07.833Z,725.00
2022-10-15T10:33:07.818Z,655.00
2022-10-15T10:34:07.809Z,580.00
2022-10-15T10:35:07.817Z,1206.00
2022-10-15T10:36:07.804Z,1136.00
2022-10-15T10:37:07.805Z,1265.00
2022-10-15T10:38:07.771Z,914.00
2022-10-15T10:39:07.788Z,904.00
2022-10-15T10:40:07.744Z,969.00
2022-10-15T10:41:07.743Z,737.00
2022-10-15T10:42:07.732Z,677.00
2022-10-15T10:43:07.710Z,451.00
2022-10-15T10:44:07.725Z,1213.00
2022-10-15T10:45:07.740Z,1122.00
2022-10-15T10:46:07.691Z,1215.00
2022-10-15T10:47:07.689Z,1107.00
2022-10-15T10:48:07.666Z,1204.00
2022-10-15T10:49:07.718Z,1187.00
2022-10-15T10:50:07.639Z,823.00
2022-10-15T10:51:09.281Z,841.00
2022-10-15T10:52:07.617Z,874.00
2022-10-15T10:53:07.656Z,630.00
2022-10-15T10:54:07.594Z,541.00
2022-10-15T10:55:07.586Z,449.00
2022-10-15T10:56:07.571Z,475.00
2022-10-15T10:57:07.556Z,557.00
2022-10-15T10:58:07.564Z,969.00
2022-10-15T10:59:07.593Z,669.00
2022-10-15T11:00:07.527Z,843.00
2022-10-15T11:01:07.537Z,765.00
2022-10-15T11:02:07.535Z,651.00
2022-10-15T11:03:07.492Z,444.00
2022-10-15T11:04:07.515Z,557.00
2022-10-15T11:05:07.462Z,647.00
2022-10-15T11:06:07.459Z,466.00
2022-10-15T11:07:07.444Z,390.00
2022-10-15T11:08:07.441Z,777.00
2022-10-15T11:09:07.458Z,804.00
2022-10-15T11:10:07.440Z,630.00
2022-10-15T11:11:07.417Z,537.00
2022-10-15T11:12:07.411Z,458.00
2022-10-15T11:13:07.434Z,454.00
2022-10-15T11:14:07.382Z,533.00
2022-10-15T11:15:07.366Z,413.00
2022-10-15T11:16:07.370Z,1099.00
2022-10-15T11:17:07.339Z,1211.00
2022-10-15T11:18:07.334Z,1611.00
2022-10-15T11:19:13.838Z,1595.00
2022-10-15T11:20:26.745Z,1095.00
2022-10-15T11:21:07.446Z,989.00
2022-10-15T11:22:13.387Z,1254.00
2022-10-15T11:23:07.277Z,1249.00
2022-10-15T11:24:07.268Z,1284.00
2022-10-15T11:25:07.633Z,663.00
2022-10-15T11:26:07.260Z,1083.00
2022-10-15T11:27:10.789Z,641.00
2022-10-15T11:28:07.226Z,1188.00
2022-10-15T11:29:07.293Z,3236.00
2022-10-15T11:30:07.205Z,3345.00
2022-10-15T11:31:07.201Z,1006.00
2022-10-15T11:32:15.075Z,3221.00
2022-10-15T11:33:08.867Z,2840.00
2022-10-15T11:34:07.159Z,1662.00
2022-10-15T11:35:07.142Z,421.00
2022-10-15T11:36:07.141Z,1894.00
2022-10-15T11:37:07.131Z,1527.00
2022-10-15T11:38:07.131Z,1662.00
2022-10-15T11:39:07.106Z,1259.00
2022-10-15T11:40:07.098Z,1743.00
2022-10-15T11:41:07.075Z,1574.00
2022-10-15T11:42:07.090Z,2754.00
2022-10-15T11:43:07.049Z,3009.00
2022-10-15T11:44:07.061Z,2391.00
2022-10-15T11:45:07.038Z,2035.00
2022-10-15T11:46:07.037Z,1964.00
2022-10-15T11:47:07.037Z,1595.00
2022-10-15T11:48:07.001Z,1296.00
2022-10-15T11:49:07.007Z,751.00
2022-10-15T11:50:06.981Z,441.00
2022-10-15T11:51:06.973Z,336.00
2022-10-15T11:52:06.952Z,664.00
2022-10-15T11:53:06.972Z,373.00
2022-10-15T11:54:06.941Z,629.00
2022-10-15T11:55:06.923Z,667.00
2022-10-15T11:56:06.917Z,385.00
2022-10-15T11:57:06.924Z,820.00
2022-10-15T11:58:06.908Z,784.00
2022-10-15T11:59:06.884Z,888.00
2022-10-15T12:00:06.875Z,1139.00
2022-10-15T12:01:06.860Z,1134.00
2022-10-15T12:02:06.921Z,1122.00
2022-10-15T12:03:06.866Z,1069.00
2022-10-15T12:04:06.919Z,935.00
2022-10-15T12:05:06.814Z,891.00
2022-10-15T12:06:06.813Z,1063.00
2022-10-15T12:07:06.800Z,916.00
2022-10-15T12:08:06.780Z,676.00
2022-10-15T12:09:06.776Z,1348.00
2022-10-15T12:10:06.791Z,1118.00
2022-10-15T12:11:06.756Z,912.00
2022-10-15T12:12:06.738Z,839.00
2022-10-15T12:13:06.731Z,669.00
2022-10-15T12:14:06.727Z,629.00
2022-10-15T12:15:06.741Z,664.00
2022-10-15T12:16:06.711Z,463.00
2022-10-15T12:17:06.783Z,791.00
2022-10-15T12:18:06.676Z,567.00
2022-10-15T12:19:06.671Z,614.00
2022-10-15T12:20:06.669Z,658.00
2022-10-15T12:21:06.661Z,902.00
2022-10-15T12:22:06.632Z,738.00
2022-10-15T12:23:06.625Z,484.00
2022-10-15T12:24:06.621Z,660.00
2022-10-15T12:25:06.628Z,634.00
2022-10-15T12:26:06.632Z,676.00
2022-10-15T12:27:06.600Z,739.00
2022-10-15T12:28:06.589Z,765.00
2022-10-15T12:29:06.809Z,903.00
2022-10-15T12:30:06.551Z,1172.00
2022-10-15T12:31:06.650Z,1055.00
2022-10-15T12:32:06.541Z,1023.00
2022-10-15T12:33:06.524Z,995.00
2022-10-15T12:34:06.561Z,763.00
2022-10-15T12:35:06.487Z,804.00
2022-10-15T12:36:06.485Z,473.00
2022-10-15T12:37:06.487Z,756.00
2022-10-15T12:38:06.460Z,838.00
2022-10-15T12:39:16.011Z,850.00
2022-10-15T12:40:06.510Z,775.00
2022-10-15T12:41:06.464Z,692.00
2022-10-15T12:42:06.433Z,394.00
2022-10-15T12:43:06.412Z,500.00
2022-10-15T12:44:06.409Z,670.00
2022-10-15T12:45:06.384Z,784.00
2022-10-15T12:46:06.421Z,1116.00
2022-10-15T12:47:06.361Z,633.00
2022-10-15T12:48:06.355Z,1167.00
2022-10-15T12:49:06.374Z,973.00
2022-10-15T12:50:06.328Z,722.00
2022-10-15T12:51:06.509Z,593.00
2022-10-15T12:52:06.329Z,289.00
2022-10-15T12:53:06.295Z,429.00
2022-10-15T12:54:06.294Z,767.00
2022-10-15T12:55:06.283Z,690.00
2022-10-15T12:56:06.267Z,587.00
2022-10-15T12:57:06.271Z,578.00
2022-10-15T12:58:06.238Z,283.00
2022-10-15T12:59:06.228Z,586.00
2022-10-15T13:00:06.230Z,687.00
2022-10-15T13:01:06.243Z,495.00
2022-10-15T13:02:06.201Z,914.00
2022-10-15T13:03:06.198Z,807.00
2022-10-15T13:04:06.179Z,940.00
2022-10-15T13:05:06.173Z,1041.00
2022-10-15T13:06:06.162Z,576.00
2022-10-15T13:07:06.146Z,922.00
2022-10-15T13:08:06.159Z,717.00
2022-10-15T13:09:06.142Z,509.00
2022-10-15T13:10:06.127Z,570.00
2022-10-15T13:11:06.101Z,641.00
2022-10-15T13:12:06.081Z,1219.00
2022-10-15T13:13:06.080Z,929.00
2022-10-15T13:14:06.106Z,1146.00
2022-10-15T13:15:06.058Z,957.00
2022-10-15T13:16:06.044Z,1216.00
2022-10-15T13:17:06.035Z,1319.00
2022-10-15T13:18:06.025Z,1067.00
2022-10-15T13:19:06.031Z,917.00
2022-10-15T13:20:06.019Z,711.00
2022-10-15T13:21:07.667Z,609.00
2022-10-15T13:22:05.994Z,976.00
2022-10-15T13:23:07.074Z,775.00
2022-10-15T13:24:05.970Z,719.00
2022-10-15T13:25:05.953Z,434.00
2022-10-15T13:26:05.959Z,473.00
2022-10-15T13:27:05.936Z,439.00
2022-10-15T13:28:05.913Z,1022.00
2022-10-15T13:29:05.959Z,683.00
2022-10-15T13:30:05.906Z,1196.00
2022-10-15T13:31:05.903Z,849.00
2022-10-15T13:32:05.865Z,387.00
2022-10-15T13:33:05.863Z,672.00
2022-10-15T13:34:05.849Z,708.00
2022-10-15T13:35:05.836Z,869.00
2022-10-15T13:36:05.827Z,777.00
2022-10-15T13:37:05.852Z,687.00
2022-10-15T13:38:05.799Z,667.00
2022-10-15T13:39:05.801Z,481.00
2022-10-15T13:40:08.080Z,437.00
2022-10-15T13:41:05.775Z,552.00
2022-10-15T13:42:05.766Z,718.00
2022-10-15T13:43:05.776Z,739.00
2022-10-15T13:44:05.737Z,724.00
2022-10-15T13:45:05.770Z,767.00
2022-10-15T13:46:05.721Z,557.00
2022-10-15T13:47:05.704Z,552.00
2022-10-15T13:48:05.713Z,662.00
2022-10-15T13:49:05.691Z,663.00
2022-10-15T13:50:05.694Z,572.00
2022-10-15T13:51:05.678Z,374.00
2022-10-15T13:52:05.652Z,606.00
2022-10-15T13:53:05.668Z,566.00
2022-10-15T13:54:05.637Z,650.00
2022-10-15T13:55:05.614Z,902.00
2022-10-15T13:56:05.624Z,878.00
2022-10-15T13:57:05.605Z,612.00
2022-10-15T13:58:05.584Z,578.00
2022-10-15T13:59:05.578Z,608.00
2022-10-15T14:00:05.570Z,443.00
2022-10-15T14:01:05.625Z,286.00
2022-10-15T14:02:05.541Z,345.00
2022-10-15T14:03:05.540Z,329.00
2022-10-15T14:04:05.523Z,273.00
2022-10-15T14:05:05.510Z,289.00
2022-10-15T14:06:05.506Z,598.00
2022-10-15T14:07:05.525Z,551.00
2022-10-15T14:08:05.475Z,408.00
2022-10-15T14:09:05.475Z,395.00
2022-10-15T14:10:05.458Z,590.00
2022-10-15T14:11:05.441Z,445.00
2022-10-15T14:12:05.582Z,483.00
2022-10-15T14:13:05.444Z,616.00
2022-10-15T14:14:05.422Z,542.00
2022-10-15T14:15:05.417Z,614.00
2022-10-15T14:16:05.404Z,635.00
2022-10-15T14:17:05.391Z,962.00
2022-10-15T14:18:05.366Z,1233.00
2022-10-15T14:19:05.378Z,942.00
2022-10-15T14:20:26.314Z,592.00
2022-10-15T14:21:05.349Z,446.00
2022-10-15T14:22:05.330Z,335.00
2022-10-15T14:23:05.317Z,407.00
2022-10-15T14:24:05.329Z,367.00
2022-10-15T14:25:05.334Z,352.00
2022-10-15T14:26:05.287Z,408.00
2022-10-15T14:27:05.277Z,439.00
2022-10-15T14:28:05.263Z,576.00
2022-10-15T14:29:05.303Z,500.00
2022-10-15T14:30:09.748Z,378.00
2022-10-15T14:31:05.243Z,322.00
2022-10-15T14:32:05.214Z,282.00
2022-10-15T14:33:05.220Z,307.00
2022-10-15T14:34:05.229Z,247.00
2022-10-15T14:35:08.624Z,290.00
2022-10-15T14:36:05.203Z,372.00
2022-10-15T14:37:05.168Z,469.00
2022-10-15T14:38:05.161Z,259.00
2022-10-15T14:39:05.147Z,400.00
2022-10-15T14:40:05.131Z,570.00
2022-10-15T14:41:07.341Z,380.00
2022-10-15T14:42:05.128Z,479.00
2022-10-15T14:43:05.124Z,374.00
2022-10-15T14:44:05.086Z,292.00
2022-10-15T14:45:05.084Z,255.00
2022-10-15T14:46:05.082Z,435.00
2022-10-15T14:47:05.058Z,310.00
2022-10-15T14:48:05.059Z,273.00
2022-10-15T14:49:05.049Z,434.00
2022-10-15T14:50:05.028Z,407.00
2022-10-15T14:51:05.019Z,218.00
2022-10-15T14:52:05.011Z,355.00
2022-10-15T14:53:05.017Z,374.00
2022-10-15T14:54:04.972Z,360.00
2022-10-15T14:55:06.297Z,345.00
2022-10-15T14:56:04.958Z,294.00
2022-10-15T14:57:04.940Z,189.00
2022-10-15T14:58:04.934Z,275.00
2022-10-15T14:59:04.964Z,238.00
2022-10-15T15:00:04.908Z,310.00
2022-10-15T15:01:04.924Z,247.00
2022-10-15T15:02:04.893Z,119.00
2022-10-15T15:03:04.979Z,238.00
2022-10-15T15:04:04.889Z,352.00
2022-10-15T15:05:04.858Z,294.00
2022-10-15T15:06:04.876Z,251.00
2022-10-15T15:07:04.851Z,215.00
2022-10-15T15:08:06.704Z,160.00
2022-10-15T15:09:04.838Z,257.00
2022-10-15T15:10:04.797Z,231.00
2022-10-15T15:11:04.794Z,211.00
2022-10-15T15:12:04.812Z,169.00
2022-10-15T15:13:04.771Z,203.00
2022-10-15T15:14:04.756Z,153.00
2022-10-15T15:15:04.766Z,347.00
2022-10-15T15:16:04.737Z,272.00
2022-10-15T15:17:04.745Z,196.00
2022-10-15T15:18:04.734Z,143.00
2022-10-15T15:19:04.727Z,125.00
2022-10-15T15:21:04.689Z,184.00
2022-10-15T15:22:04.669Z,176.00
2022-10-15T15:23:04.665Z,438.00
2022-10-15T15:24:04.664Z,380.00
2022-10-15T15:25:04.681Z,318.00
2022-10-15T15:26:04.637Z,385.00
2022-10-15T15:27:04.633Z,234.00
2022-10-15T15:28:04.606Z,270.00
2022-10-15T15:29:04.763Z,239.00
2022-10-15T15:30:04.707Z,168.00
2022-10-15T15:31:04.586Z,134.00
2022-10-15T15:32:04.584Z,150.00
2022-10-15T15:33:04.548Z,115.00
2022-10-15T15:34:04.539Z,129.00
2022-10-15T15:35:04.581Z,159.00
2022-10-15T15:36:04.560Z,174.00
2022-10-15T15:37:04.518Z,146.00
2022-10-15T15:38:04.500Z,123.00
2022-10-15T15:39:04.494Z,148.00
2022-10-15T15:40:04.524Z,123.00
2022-10-15T15:41:04.491Z,103.00
2022-10-15T15:42:04.478Z,131.00
2022-10-15T15:43:04.466Z,97.00
2022-10-15T15:44:04.433Z,91.00
2022-10-15T15:45:04.429Z,115.00
2022-10-15T15:46:04.410Z,118.00
2022-10-15T15:47:04.423Z,75.00
2022-10-15T15:48:04.467Z,132.00
2022-10-15T15:49:04.391Z,171.00
2022-10-15T15:50:04.467Z,155.00
2022-10-15T15:51:04.362Z,135.00
2022-10-15T15:52:04.349Z,100.00
2022-10-15T15:53:04.347Z,147.00
2022-10-15T15:54:04.348Z,126.00
2022-10-15T15:55:04.317Z,137.00
2022-10-15T15:56:04.299Z,129.00
2022-10-15T15:57:04.303Z,84.00
2022-10-15T15:58:04.286Z,124.00
2022-10-15T15:59:04.294Z,103.00
2022-10-15T16:00:04.296Z,70.00
2022-10-15T16:01:04.260Z,61.00
2022-10-15T16:02:04.276Z,52.00
2022-10-15T16:03:04.232Z,39.00
2022-10-15T16:04:04.255Z,40.00
2022-10-15T16:05:04.222Z,53.00
2022-10-15T16:06:04.194Z,56.00
2022-10-15T16:07:04.185Z,48.00
2022-10-15T16:08:04.184Z,37.00
2022-10-15T16:09:04.159Z,36.00
2022-10-15T16:10:04.237Z,43.00
2022-10-15T16:11:04.156Z,38.00
2022-10-15T16:12:04.142Z,41.00
2022-10-15T16:13:04.130Z,38.00
2022-10-15T16:14:09.086Z,26.00
2022-10-15T16:15:04.112Z,26.00
2022-10-15T16:16:04.082Z,18.00
2022-10-15T16:17:04.087Z,20.00
2022-10-15T16:18:04.086Z,19.00
2022-10-15T16:19:04.055Z,17.00
2022-10-15T16:20:04.125Z,15.00
2022-10-15T16:21:04.029Z,27.00
2022-10-15T16:22:04.026Z,20.00
2022-10-15T16:23:04.022Z,26.00
2022-10-15T16:24:04.014Z,23.00
2022-10-15T16:25:03.989Z,23.00
2022-10-15T16:26:03.984Z,15.00